createdAt,value
2019-05-25T00:09:23.509Z,99856.27
2019-05-25T00:19:27.067Z,99873.16
2019-05-25T00:29:30.632Z,99863.20
2019-05-25T00:39:34.195Z,99859.77
2019-05-25T00:49:39.340Z,99850.72
2019-05-25T00:59:42.904Z,99857.53
2019-05-25T01:09:46.505Z,99847.11
2019-05-25T01:19:50.136Z,99858.78
2019-05-25T01:29:53.682Z,99858.98
2019-05-25T01:39:57.231Z,99845.77
2019-05-25T01:50:00.791Z,99842.80
2019-05-25T02:00:06.254Z,99849.16
2019-05-25T02:10:12.135Z,99843.05
2019-05-25T02:20:16.031Z,99837.80
2019-05-25T02:30:19.557Z,99838.77
2019-05-25T02:40:23.115Z,99834.92
2019-05-25T02:50:26.759Z,99831.17
2019-05-25T03:00:34.243Z,99827.94
2019-05-25T03:10:37.782Z,99836.38
2019-05-25T03:20:41.343Z,99839.02
2019-05-25T03:30:44.880Z,99851.41
2019-05-25T03:40:48.440Z,99856.52
2019-05-25T03:50:52.058Z,99846.53
2019-05-25T04:00:55.616Z,99856.46
2019-05-25T04:10:59.182Z,99862.02
2019-05-25T04:21:02.750Z,99851.70
2019-05-25T04:31:06.324Z,99865.45
2019-05-25T04:41:09.883Z,99866.20
2019-05-25T04:51:13.472Z,99871.70
2019-05-25T05:01:17.034Z,99867.39
2019-05-25T05:11:20.614Z,99875.94
2019-05-25T05:21:24.237Z,99874.32
2019-05-25T05:31:27.815Z,99888.89
2019-05-25T05:41:31.461Z,99887.81
2019-05-25T05:51:36.125Z,99886.00
2019-05-25T06:01:39.694Z,99882.34
2019-05-25T06:11:43.262Z,99889.80
2019-05-25T06:21:46.844Z,99888.72
2019-05-25T06:31:50.396Z,99888.56
2019-05-25T06:41:53.964Z,99892.34
2019-05-25T06:51:57.504Z,99901.02
2019-05-25T07:02:01.158Z,99908.83
2019-05-25T07:12:04.726Z,99920.55
2019-05-25T07:22:08.313Z,99933.19
2019-05-25T07:32:11.855Z,99933.79
2019-05-25T07:42:15.422Z,99942.34
2019-05-25T07:52:18.998Z,99953.91
2019-05-25T08:02:22.567Z,99953.64
2019-05-25T08:12:26.097Z,99960.60
2019-05-25T08:22:29.706Z,99965.53
2019-05-25T08:32:33.276Z,99972.33
2019-05-25T08:42:36.864Z,99970.36
2019-05-25T08:52:40.437Z,99969.39
2019-05-25T09:02:44.649Z,99981.27
2019-05-25T09:12:48.227Z,99987.78
2019-05-25T09:22:51.838Z,99991.14
2019-05-25T09:32:55.404Z,99990.56
2019-05-25T09:42:58.957Z,100008.83
2019-05-25T09:53:02.525Z,100008.83
2019-05-25T10:03:08.217Z,100026.00
2019-05-25T10:13:11.892Z,100018.30
2019-05-25T10:23:15.601Z,100010.33
2019-05-25T10:33:21.743Z,100008.04
2019-05-25T10:43:24.581Z,99997.09
2019-05-25T10:53:29.134Z,99997.95
2019-05-25T11:03:32.679Z,99991.05
2019-05-25T11:13:37.486Z,99978.09
2019-05-25T11:23:41.059Z,99982.16
2019-05-25T11:33:44.688Z,99976.55
2019-05-25T11:43:48.225Z,99967.31
2019-05-25T11:53:51.784Z,99959.70
2019-05-25T12:03:55.319Z,99970.66
2019-05-25T12:13:58.905Z,99960.38
2019-05-25T12:24:02.686Z,99963.80
2019-05-25T12:34:06.234Z,99968.66
2019-05-25T12:44:09.784Z,99973.95
2019-05-25T12:54:13.354Z,99970.92
2019-05-25T13:04:16.898Z,99972.32
2019-05-25T13:14:20.485Z,99967.00
2019-05-25T13:24:24.074Z,99950.63
2019-05-25T13:34:27.644Z,99951.50
2019-05-25T13:44:31.193Z,99934.68
2019-05-25T13:54:34.775Z,99932.68
2019-05-25T14:04:38.319Z,99927.80
2019-05-25T14:14:41.907Z,99929.20
2019-05-25T14:24:45.471Z,99925.45
2019-05-25T14:34:49.003Z,99920.89
2019-05-25T14:44:52.543Z,99925.92
2019-05-25T14:54:56.497Z,99919.18
2019-05-25T15:05:00.087Z,99910.30
2019-05-25T15:15:04.865Z,99926.13
2019-05-25T15:25:08.848Z,99919.09
2019-05-25T15:35:12.406Z,99915.49
2019-05-25T15:45:16.511Z,99910.55
2019-05-25T15:55:20.052Z,99916.22
2019-05-25T16:05:23.990Z,99916.97
2019-05-25T16:15:28.283Z,99913.16
2019-05-25T16:25:32.002Z,99917.55
2019-05-25T16:35:35.939Z,99919.23
2019-05-25T16:45:40.084Z,99930.79
2019-05-25T16:55:44.281Z,99933.88
2019-05-25T17:05:47.846Z,99946.89
2019-05-25T17:15:51.449Z,99957.52
2019-05-25T17:25:55.082Z,99962.20
2019-05-25T17:35:58.740Z,99967.22
2019-05-25T17:46:02.295Z,99971.35
2019-05-25T17:56:05.952Z,99964.49
2019-05-25T18:06:09.633Z,99966.27
2019-05-25T18:16:13.884Z,99961.00
2019-05-25T18:26:17.408Z,99966.98
2019-05-25T18:36:21.092Z,99974.47
2019-05-25T18:46:24.985Z,99977.61
2019-05-25T18:56:28.564Z,99982.22
2019-05-25T19:06:32.912Z,99983.26
2019-05-25T19:16:36.486Z,99991.61
2019-05-25T19:26:40.102Z,99990.30
2019-05-25T19:36:43.674Z,100003.77
2019-05-25T19:46:47.271Z,100015.00
2019-05-25T19:56:50.921Z,100007.63
2019-05-25T20:06:55.419Z,100008.86
2019-05-25T20:16:58.976Z,100023.13
2019-05-25T20:27:02.626Z,100024.30
2019-05-25T20:37:06.221Z,100039.12
2019-05-25T20:47:09.828Z,100053.50
2019-05-25T20:57:13.381Z,100066.53
2019-05-25T21:07:16.964Z,100075.11
2019-05-25T21:17:20.776Z,100092.14
2019-05-25T21:27:24.403Z,100096.16
2019-05-25T21:37:27.977Z,100097.58
2019-05-25T21:47:31.586Z,100107.41
2019-05-25T21:57:35.150Z,100116.44
2019-05-25T22:07:39.048Z,100127.98
2019-05-25T22:17:42.599Z,100136.96
2019-05-25T22:27:46.138Z,100147.68
2019-05-25T22:37:49.901Z,100146.49
2019-05-25T22:47:53.634Z,100155.00
2019-05-25T22:57:57.202Z,100165.80
2019-05-25T23:08:00.750Z,100169.84
2019-05-25T23:18:04.886Z,100161.44
2019-05-25T23:28:08.460Z,100169.94
2019-05-25T23:38:12.043Z,100160.30
2019-05-25T23:48:15.633Z,100167.88
2019-05-25T23:58:19.253Z,100160.04
